createdAt,value
2023-02-14T00:02:14.732Z,44.28
2023-02-14T00:05:00.243Z,37.13
2023-02-14T00:07:46.043Z,35.30
2023-02-14T00:10:31.330Z,24.80
2023-02-14T00:13:16.640Z,33.15
2023-02-14T00:16:03.690Z,34.08
2023-02-14T00:19:04.412Z,34.72
2023-02-14T00:21:50.521Z,34.47
2023-02-14T00:24:36.065Z,29.73
2023-02-14T00:27:21.526Z,32.10
2023-02-14T00:30:09.053Z,27.60
2023-02-14T00:32:56.926Z,25.33
2023-02-14T00:35:42.181Z,30.30
2023-02-14T00:38:27.606Z,27.40
2023-02-14T00:41:19.311Z,30.65
2023-02-14T00:44:05.418Z,25.92
2023-02-14T00:46:51.260Z,32.00
2023-02-14T00:49:36.732Z,24.67
2023-02-14T00:52:22.034Z,27.27
2023-02-14T00:55:08.257Z,27.05
2023-02-14T00:57:53.920Z,24.23
2023-02-14T01:00:39.847Z,28.92
2023-02-14T01:03:25.570Z,27.75
2023-02-14T01:06:11.027Z,24.92
2023-02-14T01:08:56.813Z,28.80
2023-02-14T01:11:42.230Z,26.33
2023-02-14T01:14:27.798Z,29.30
2023-02-14T01:17:13.207Z,28.55
2023-02-14T01:19:58.371Z,35.22
2023-02-14T01:22:43.871Z,34.50
2023-02-14T01:25:29.432Z,29.83
2023-02-14T01:28:16.950Z,29.05
2023-02-14T01:31:11.053Z,37.55
2023-02-14T01:33:57.745Z,39.13
2023-02-14T01:36:43.108Z,38.45
2023-02-14T01:39:28.426Z,38.53
2023-02-14T01:42:13.918Z,34.97
2023-02-14T01:45:01.570Z,27.48
2023-02-14T01:47:52.113Z,34.25
2023-02-14T01:50:42.927Z,33.65
2023-02-14T01:53:29.052Z,30.75
2023-02-14T01:56:21.643Z,34.70
2023-02-14T01:59:12.877Z,29.27
2023-02-14T02:02:02.489Z,30.85
2023-02-14T02:04:47.893Z,27.80
2023-02-14T02:07:33.303Z,34.85
2023-02-14T02:10:19.011Z,30.70
2023-02-14T02:13:07.978Z,32.03
2023-02-14T02:16:02.521Z,37.00
2023-02-14T02:18:58.217Z,32.53
2023-02-14T02:21:43.501Z,37.65
2023-02-14T02:24:48.893Z,38.72
2023-02-14T02:28:14.741Z,30.27
2023-02-14T02:31:18.918Z,35.17
2023-02-14T02:34:53.917Z,33.40
2023-02-14T02:38:00.605Z,43.20
2023-02-14T02:41:11.819Z,27.55
2023-02-14T02:44:18.787Z,36.13
2023-02-14T02:47:03.979Z,40.33
2023-02-14T02:50:32.324Z,34.63
2023-02-14T02:53:51.767Z,38.95
2023-02-14T02:56:49.943Z,31.75
2023-02-14T02:59:41.648Z,28.52
2023-02-14T03:03:08.299Z,32.28
2023-02-14T03:05:53.925Z,35.33
2023-02-14T03:08:39.315Z,33.05
2023-02-14T03:11:26.011Z,38.97
2023-02-14T03:14:37.115Z,36.83
2023-02-14T03:17:37.505Z,28.40
2023-02-14T03:20:55.011Z,35.10
2023-02-14T03:23:54.273Z,28.77
2023-02-14T03:26:50.658Z,35.15
2023-02-14T03:29:43.978Z,38.88
2023-02-14T03:32:50.828Z,31.13
2023-02-14T03:36:14.632Z,39.45
2023-02-14T03:39:13.210Z,44.13
2023-02-14T03:42:07.805Z,43.78
2023-02-14T03:44:56.863Z,39.80
2023-02-14T03:47:44.680Z,42.55
2023-02-14T03:50:33.011Z,39.58
2023-02-14T03:53:23.881Z,40.83
2023-02-14T03:56:18.520Z,45.47
2023-02-14T03:59:13.556Z,44.42
2023-02-14T04:02:07.469Z,39.70
2023-02-14T04:04:54.571Z,48.08
2023-02-14T04:07:52.302Z,44.75
2023-02-14T04:10:40.119Z,49.50
2023-02-14T04:13:25.379Z,40.38
2023-02-14T04:16:10.861Z,60.85
2023-02-14T04:19:14.654Z,46.03
2023-02-14T04:22:00.301Z,61.55
2023-02-14T04:24:45.712Z,45.53
2023-02-14T04:27:31.022Z,56.35
2023-02-14T04:30:18.192Z,59.95
2023-02-14T04:33:04.801Z,50.75
2023-02-14T04:35:50.371Z,42.85
2023-02-14T04:38:35.980Z,35.92
2023-02-14T04:41:21.436Z,37.97
2023-02-14T04:44:06.720Z,34.72
2023-02-14T04:46:52.674Z,35.88
2023-02-14T04:49:38.042Z,40.78
2023-02-14T04:52:23.543Z,46.13
2023-02-14T04:55:09.702Z,34.80
2023-02-14T04:57:55.249Z,33.50
2023-02-14T05:00:40.597Z,37.85
2023-02-14T05:03:26.036Z,35.03
2023-02-14T05:06:11.735Z,28.48
2023-02-14T05:08:57.232Z,50.53
2023-02-14T05:11:42.578Z,37.70
2023-02-14T05:14:27.921Z,33.85
2023-02-14T05:17:13.268Z,40.85
2023-02-14T05:19:58.733Z,34.08
2023-02-14T05:22:44.084Z,28.02
2023-02-14T05:25:30.365Z,19.65
2023-02-14T05:28:15.863Z,31.42
2023-02-14T05:31:01.843Z,23.58
2023-02-14T05:33:47.615Z,34.33
2023-02-14T05:36:33.043Z,35.05
2023-02-14T05:39:18.556Z,31.33
2023-02-14T05:42:04.157Z,33.78
2023-02-14T05:44:49.467Z,23.90
2023-02-14T05:47:35.385Z,32.08
2023-02-14T05:50:21.208Z,31.05
2023-02-14T05:53:06.517Z,26.23
2023-02-14T05:55:51.994Z,29.05
2023-02-14T05:58:37.327Z,35.00
2023-02-14T06:01:22.716Z,29.70
2023-02-14T06:04:08.522Z,31.20
2023-02-14T06:06:54.024Z,30.05
2023-02-14T06:09:39.429Z,23.77
2023-02-14T06:12:25.115Z,31.00
2023-02-14T06:15:11.428Z,32.78
2023-02-14T06:17:57.888Z,33.05
2023-02-14T06:20:43.416Z,40.10
2023-02-14T06:23:28.914Z,26.88
2023-02-14T06:26:14.124Z,28.60
2023-02-14T06:28:59.648Z,39.28
2023-02-14T06:31:45.284Z,29.05
2023-02-14T06:34:30.848Z,32.70
2023-02-14T06:37:16.453Z,46.28
2023-02-14T06:40:01.992Z,28.75
2023-02-14T06:42:47.700Z,34.53
2023-02-14T06:45:33.044Z,31.02
2023-02-14T06:48:18.300Z,29.77
2023-02-14T06:51:03.973Z,30.83
2023-02-14T06:53:49.447Z,28.10
2023-02-14T06:56:34.925Z,31.02
2023-02-14T06:59:20.192Z,30.15
2023-02-14T07:02:05.596Z,27.77
2023-02-14T07:04:50.980Z,31.90
2023-02-14T07:07:36.310Z,28.90
2023-02-14T07:10:21.810Z,26.48
2023-02-14T07:13:07.157Z,25.27
2023-02-14T07:15:52.596Z,38.25
2023-02-14T07:18:37.913Z,24.90
2023-02-14T07:21:23.401Z,30.35
2023-02-14T07:24:08.792Z,28.92
2023-02-14T07:26:54.257Z,23.48
2023-02-14T07:29:39.773Z,29.73
2023-02-14T07:32:25.669Z,29.42
2023-02-14T07:35:12.254Z,24.58
2023-02-14T07:37:59.338Z,20.95
2023-02-14T07:40:44.523Z,20.10
2023-02-14T07:43:30.537Z,24.10
2023-02-14T07:46:17.547Z,18.95
2023-02-14T07:49:03.073Z,20.55
2023-02-14T07:51:48.674Z,14.93
2023-02-14T07:54:34.319Z,15.43
2023-02-14T07:57:19.853Z,20.38
2023-02-14T08:00:06.995Z,15.77
2023-02-14T08:02:57.205Z,15.23
2023-02-14T08:05:42.836Z,17.35
2023-02-14T08:08:31.146Z,17.50
2023-02-14T08:11:36.440Z,15.60
2023-02-14T08:14:22.713Z,16.67
2023-02-14T08:17:10.179Z,21.85
2023-02-14T08:19:55.685Z,15.50
2023-02-14T08:22:41.036Z,17.05
2023-02-14T08:25:26.386Z,16.73
2023-02-14T08:28:13.928Z,18.50
2023-02-14T08:30:59.347Z,26.35
2023-02-14T08:33:45.611Z,22.63
2023-02-14T08:36:31.244Z,21.80
2023-02-14T08:39:16.619Z,18.52
2023-02-14T08:42:01.936Z,20.15
2023-02-14T08:44:47.547Z,37.53
2023-02-14T08:47:38.540Z,24.17
2023-02-14T08:50:24.459Z,23.00
2023-02-14T08:53:12.182Z,24.52
2023-02-14T08:56:03.130Z,22.50
2023-02-14T08:58:52.098Z,23.98
2023-02-14T09:01:37.726Z,20.40
2023-02-14T09:04:23.401Z,17.88
2023-02-14T09:07:09.336Z,19.52
2023-02-14T09:09:54.955Z,16.38
2023-02-14T09:12:41.343Z,31.92
2023-02-14T09:15:26.662Z,18.92
2023-02-14T09:18:12.170Z,25.30
2023-02-14T09:20:57.730Z,19.73
2023-02-14T09:23:43.609Z,22.08
2023-02-14T09:26:29.327Z,16.77
2023-02-14T09:29:16.239Z,13.25
2023-02-14T09:32:02.753Z,13.88
2023-02-14T09:34:48.296Z,13.65
2023-02-14T09:37:52.104Z,8.75
2023-02-14T09:40:37.836Z,13.10
2023-02-14T09:43:45.022Z,12.77
2023-02-14T09:46:35.960Z,12.25
2023-02-14T09:49:33.861Z,9.43
2023-02-14T09:52:23.205Z,11.30
2023-02-14T09:55:14.778Z,13.60
2023-02-14T09:58:23.065Z,10.25
2023-02-14T10:01:19.005Z,11.18
2023-02-14T10:04:28.008Z,11.65
2023-02-14T10:07:33.900Z,16.30
2023-02-14T10:10:28.499Z,16.42
2023-02-14T10:13:22.855Z,12.88
2023-02-14T10:16:18.774Z,17.17
2023-02-14T10:19:23.994Z,18.52
2023-02-14T10:22:14.772Z,7.20
2023-02-14T10:25:20.936Z,9.43
2023-02-14T10:28:15.220Z,9.32
2023-02-14T10:31:20.789Z,13.05
2023-02-14T10:34:21.316Z,12.65
2023-02-14T10:37:20.390Z,17.35
2023-02-14T10:40:32.919Z,16.33
2023-02-14T10:43:45.917Z,10.25
2023-02-14T10:46:41.222Z,20.80
2023-02-14T10:49:45.317Z,10.23
2023-02-14T10:52:49.768Z,14.00
2023-02-14T10:56:13.197Z,16.23
2023-02-14T10:59:03.456Z,13.45
2023-02-14T11:01:52.377Z,13.05
2023-02-14T11:04:38.552Z,13.23
2023-02-14T11:07:24.263Z,13.18
2023-02-14T11:10:14.412Z,13.48
2023-02-14T11:12:59.866Z,18.85
2023-02-14T11:15:50.901Z,20.35
2023-02-14T11:18:39.966Z,21.53
2023-02-14T11:21:39.340Z,22.77
2023-02-14T11:24:29.980Z,10.95
2023-02-14T11:27:19.564Z,15.48
2023-02-14T11:30:18.737Z,14.13
2023-02-14T11:33:05.579Z,10.50
2023-02-14T11:35:53.137Z,13.20
2023-02-14T11:38:40.123Z,10.15
2023-02-14T11:41:26.133Z,16.10
2023-02-14T11:44:24.737Z,13.93
2023-02-14T11:47:27.470Z,10.80
2023-02-14T11:50:24.902Z,9.80
2023-02-14T11:53:12.686Z,8.68
2023-02-14T11:56:00.813Z,8.75
2023-02-14T11:59:04.593Z,14.02
2023-02-14T12:01:50.155Z,17.42
2023-02-14T12:04:46.315Z,12.90
2023-02-14T12:07:39.601Z,12.48
2023-02-14T12:10:33.207Z,14.52
2023-02-14T12:13:18.729Z,12.38
2023-02-14T12:16:04.389Z,15.73
2023-02-14T12:19:03.159Z,9.00
2023-02-14T12:21:53.573Z,16.65
2023-02-14T12:24:49.206Z,13.50
2023-02-14T12:27:49.523Z,19.33
2023-02-14T12:30:35.448Z,9.77
2023-02-14T12:33:23.571Z,10.77
2023-02-14T12:36:42.637Z,21.08
2023-02-14T12:39:42.920Z,18.02
2023-02-14T12:43:06.043Z,15.05
2023-02-14T12:45:51.517Z,13.30
2023-02-14T12:48:50.785Z,19.15
2023-02-14T12:52:09.165Z,13.90
2023-02-14T12:55:00.780Z,15.10
2023-02-14T12:58:13.943Z,16.58
2023-02-14T13:01:28.410Z,15.32
2023-02-14T13:04:14.772Z,13.07
2023-02-14T13:07:04.911Z,20.35
2023-02-14T13:09:53.255Z,13.25
2023-02-14T13:12:54.936Z,15.38
2023-02-14T13:16:03.861Z,19.42
2023-02-14T13:18:55.647Z,16.20
2023-02-14T13:21:43.080Z,14.07
2023-02-14T13:24:35.693Z,18.48
2023-02-14T13:27:38.941Z,15.13
2023-02-14T13:30:29.977Z,19.92
2023-02-14T13:33:27.199Z,20.20
2023-02-14T13:36:13.869Z,20.65
2023-02-14T13:39:00.321Z,27.80
2023-02-14T13:41:46.176Z,14.77
2023-02-14T13:44:46.957Z,17.25
2023-02-14T13:47:32.501Z,17.55
2023-02-14T13:50:21.616Z,24.15
2023-02-14T13:53:13.928Z,16.38
2023-02-14T13:56:00.673Z,18.70
2023-02-14T13:59:06.433Z,16.42
2023-02-14T14:01:52.108Z,10.48
2023-02-14T14:04:38.637Z,8.82
2023-02-14T14:07:30.925Z,17.45
2023-02-14T14:10:46.223Z,15.10
2023-02-14T14:13:40.992Z,28.27
2023-02-14T14:16:29.848Z,13.38
2023-02-14T14:19:21.977Z,21.23
2023-02-14T14:22:10.666Z,20.35
2023-02-14T14:24:59.765Z,19.10
2023-02-14T14:27:46.833Z,13.43
2023-02-14T14:30:35.772Z,14.25
2023-02-14T14:33:32.523Z,20.40
2023-02-14T14:36:24.975Z,16.08
2023-02-14T14:39:11.004Z,8.63
2023-02-14T14:42:06.988Z,19.20
2023-02-14T14:45:01.972Z,15.77
2023-02-14T14:47:48.933Z,11.98
2023-02-14T14:50:36.746Z,18.13
2023-02-14T14:53:42.041Z,17.67
2023-02-14T14:56:31.233Z,8.48
2023-02-14T14:59:29.260Z,14.63
2023-02-14T15:02:23.878Z,13.57
2023-02-14T15:05:34.284Z,12.65
2023-02-14T15:08:32.363Z,14.35
2023-02-14T15:11:46.907Z,10.57
2023-02-14T15:14:36.105Z,19.23
2023-02-14T15:17:31.894Z,21.98
2023-02-14T15:20:23.980Z,20.05
2023-02-14T15:23:19.113Z,14.20
2023-02-14T15:26:06.302Z,15.55
2023-02-14T15:28:59.248Z,12.20
2023-02-14T15:31:45.948Z,11.30
2023-02-14T15:34:36.257Z,8.55
2023-02-14T15:37:24.018Z,16.83
2023-02-14T15:40:17.917Z,13.32
2023-02-14T15:43:27.890Z,12.13
2023-02-14T15:46:39.664Z,15.93
2023-02-14T15:49:35.791Z,16.88
2023-02-14T15:52:22.043Z,12.00
2023-02-14T15:55:15.341Z,11.82
2023-02-14T15:58:05.913Z,11.73
2023-02-14T16:00:52.696Z,17.80
2023-02-14T16:03:43.679Z,13.95
2023-02-14T16:06:44.934Z,17.17
2023-02-14T16:09:34.323Z,9.85
2023-02-14T16:12:36.047Z,18.48
2023-02-14T16:15:24.110Z,14.73
2023-02-14T16:18:32.420Z,14.02
2023-02-14T16:21:19.373Z,7.68
2023-02-14T16:24:08.189Z,15.65
2023-02-14T16:26:53.459Z,9.88
2023-02-14T16:29:41.289Z,7.07
2023-02-14T16:32:26.615Z,10.77
2023-02-14T16:35:20.126Z,10.52
2023-02-14T16:38:05.411Z,17.33
2023-02-14T16:40:53.192Z,11.82
2023-02-14T16:43:38.446Z,17.77
2023-02-14T16:46:28.767Z,9.85
2023-02-14T16:49:14.825Z,13.05
2023-02-14T16:52:00.153Z,11.50
2023-02-14T16:54:45.394Z,8.55
2023-02-14T16:57:40.753Z,16.35
2023-02-14T17:00:27.449Z,21.77
2023-02-14T17:03:12.930Z,13.80
2023-02-14T17:06:01.396Z,23.70
2023-02-14T17:08:50.171Z,21.92
2023-02-14T17:11:41.688Z,22.58
2023-02-14T17:14:33.150Z,13.80
2023-02-14T17:17:18.932Z,13.52
2023-02-14T17:20:08.275Z,13.38
2023-02-14T17:22:55.559Z,17.65
2023-02-14T17:25:41.656Z,17.73
2023-02-14T17:28:27.187Z,23.98
2023-02-14T17:31:13.597Z,20.10
2023-02-14T17:33:59.102Z,20.02
2023-02-14T17:36:44.485Z,28.13
2023-02-14T17:39:29.708Z,27.17
2023-02-14T17:42:14.916Z,26.98
2023-02-14T17:45:00.528Z,29.95
2023-02-14T17:47:46.241Z,35.03
2023-02-14T17:50:31.655Z,34.70
2023-02-14T17:53:18.155Z,22.27
2023-02-14T17:56:20.255Z,23.48
2023-02-14T17:59:09.104Z,38.13
2023-02-14T18:01:54.630Z,31.83
2023-02-14T18:04:40.181Z,32.95
2023-02-14T18:07:26.101Z,19.13
2023-02-14T18:10:12.394Z,41.53
2023-02-14T18:12:57.653Z,32.33
2023-02-14T18:15:43.264Z,29.67
2023-02-14T18:18:28.656Z,28.35
2023-02-14T18:21:15.767Z,32.65
2023-02-14T18:24:02.953Z,23.02
2023-02-14T18:26:48.530Z,35.88
2023-02-14T18:29:34.970Z,23.17
2023-02-14T18:32:20.391Z,26.80
2023-02-14T18:35:06.221Z,49.40
2023-02-14T18:37:51.846Z,48.28
2023-02-14T18:40:38.036Z,36.15
2023-02-14T18:43:23.256Z,57.03
2023-02-14T18:46:14.478Z,40.15
2023-02-14T18:48:59.869Z,38.40
2023-02-14T18:51:45.538Z,35.78
2023-02-14T18:54:31.220Z,30.75
2023-02-14T18:57:16.513Z,29.10
2023-02-14T19:00:06.806Z,19.73
2023-02-14T19:02:52.110Z,18.85
2023-02-14T19:05:38.381Z,21.48
2023-02-14T19:08:23.672Z,21.73
2023-02-14T19:11:21.858Z,13.82
2023-02-14T19:14:10.382Z,22.85
2023-02-14T19:16:56.068Z,31.25
2023-02-14T19:19:41.516Z,31.92
2023-02-14T19:22:26.884Z,21.08
2023-02-14T19:25:12.617Z,23.73
2023-02-14T19:27:58.018Z,23.27
2023-02-14T19:30:43.435Z,16.58
2023-02-14T19:33:28.985Z,12.38
2023-02-14T19:36:17.327Z,19.17
2023-02-14T19:39:03.047Z,18.58
2023-02-14T19:41:48.914Z,19.75
2023-02-14T19:44:34.231Z,12.45
2023-02-14T19:47:31.301Z,14.88
2023-02-14T19:50:25.604Z,19.08
2023-02-14T19:53:11.207Z,21.45
2023-02-14T19:55:56.918Z,16.83
2023-02-14T19:58:42.198Z,17.88
2023-02-14T20:01:33.890Z,14.30
2023-02-14T20:04:22.502Z,18.80
2023-02-14T20:07:08.598Z,34.58
2023-02-14T20:09:54.884Z,25.33
2023-02-14T20:12:40.310Z,25.58
2023-02-14T20:15:28.098Z,27.15
2023-02-14T20:18:13.813Z,18.52
2023-02-14T20:21:02.343Z,26.17
2023-02-14T20:23:47.746Z,33.55
2023-02-14T20:26:34.408Z,24.13
2023-02-14T20:29:21.267Z,30.52
2023-02-14T20:32:07.113Z,19.17
2023-02-14T20:34:52.463Z,14.98
2023-02-14T20:37:38.205Z,21.42
2023-02-14T20:40:23.691Z,13.45
2023-02-14T20:43:09.420Z,17.90
2023-02-14T20:45:59.126Z,18.10
2023-02-14T20:48:44.702Z,19.52
2023-02-14T20:51:30.005Z,17.48
2023-02-14T20:54:16.276Z,16.88
2023-02-14T20:57:01.635Z,11.88
2023-02-14T20:59:47.121Z,9.07
2023-02-14T21:02:32.694Z,18.30
2023-02-14T21:05:19.354Z,18.30
2023-02-14T21:08:04.915Z,18.38
2023-02-14T21:10:50.245Z,13.65
2023-02-14T21:13:36.322Z,13.63
2023-02-14T21:16:22.010Z,16.55
2023-02-14T21:19:07.641Z,10.23
2023-02-14T21:21:53.420Z,15.02
2023-02-14T21:24:40.341Z,15.07
2023-02-14T21:27:25.787Z,15.23
2023-02-14T21:30:12.590Z,8.20
2023-02-14T21:32:58.221Z,16.60
2023-02-14T21:35:43.969Z,8.88
2023-02-14T21:38:29.376Z,10.93
2023-02-14T21:41:18.683Z,7.13
2023-02-14T21:44:05.048Z,8.68
2023-02-14T21:46:50.566Z,8.55
2023-02-14T21:49:54.424Z,14.07
2023-02-14T21:52:39.956Z,10.40
2023-02-14T21:55:25.331Z,12.52
2023-02-14T21:58:10.834Z,14.40
2023-02-14T22:00:56.170Z,13.27
2023-02-14T22:03:41.518Z,39.08
2023-02-14T22:06:28.530Z,138.23
2023-02-14T22:09:14.585Z,25.30
2023-02-14T22:12:00.183Z,34.20
2023-02-14T22:14:45.636Z,40.95
2023-02-14T22:17:33.111Z,34.10
2023-02-14T22:20:18.796Z,43.92
2023-02-14T22:23:04.321Z,46.90
2023-02-14T22:25:49.633Z,26.08
2023-02-14T22:28:35.031Z,19.58
2023-02-14T22:31:20.983Z,16.42
2023-02-14T22:34:09.120Z,31.85
2023-02-14T22:36:54.957Z,13.73
2023-02-14T22:39:40.264Z,19.70
2023-02-14T22:42:25.535Z,13.32
2023-02-14T22:45:10.907Z,16.50
2023-02-14T22:47:56.230Z,10.50
2023-02-14T22:50:42.155Z,13.75
2023-02-14T22:53:27.657Z,7.30
2023-02-14T22:56:16.565Z,13.20
2023-02-14T22:59:04.974Z,14.88
2023-02-14T23:01:52.480Z,12.00
2023-02-14T23:04:37.656Z,13.27
2023-02-14T23:07:23.266Z,13.82
2023-02-14T23:10:09.955Z,8.43
2023-02-14T23:13:13.817Z,9.95
2023-02-14T23:16:19.656Z,12.93
2023-02-14T23:19:23.736Z,9.27
2023-02-14T23:22:12.736Z,10.13
2023-02-14T23:25:01.164Z,9.45
2023-02-14T23:27:49.347Z,7.82
2023-02-14T23:30:35.060Z,12.30
2023-02-14T23:33:20.688Z,8.80
2023-02-14T23:36:06.028Z,14.35
2023-02-14T23:38:51.454Z,11.35
2023-02-14T23:41:49.157Z,13.23
2023-02-14T23:44:35.837Z,15.45
2023-02-14T23:47:21.347Z,17.60
2023-02-14T23:50:07.205Z,17.88
2023-02-14T23:52:52.917Z,20.25
2023-02-14T23:55:38.203Z,14.80
2023-02-14T23:58:23.458Z,13.38
